| time (UTC) | temp C | wind direction | speed KPH | gust KPH | rain 1hr cm | rain 24hr cm | rain mn cm | humidity % | barometer mb |
| 20260507203121 | 12 | 0.0 | 3.2 | 0.00 | 0.00 | 0.00 | 69 | 1011.5 | |
| 20260507201120 | 13 | 292 | 1.6 | 3.2 | 0.00 | 0.00 | 0.00 | 68 | 1011.5 |
| 20260507195121 | 13 | 292 | 3.2 | 4.8 | 0.00 | 0.00 | 0.00 | 65 | 1011.3 |
| 20260507193120 | 15 | 292 | 1.6 | 4.8 | 0.00 | 0.00 | 0.00 | 62 | 1011.1 |
| 20260507191120 | 15 | 292 | 1.6 | 6.4 | 0.00 | 0.00 | 0.00 | 61 | 1011.1 |
| 20260507185120 | 16 | 292 | 3.2 | 4.8 | 0.00 | 0.00 | 0.00 | 59 | 1011.1 |
| 20260507183119 | 16 | 270 | 3.2 | 9.7 | 0.00 | 0.00 | 0.00 | 57 | 1010.9 |
| 20260507181120 | 16 | 315 | 3.2 | 6.4 | 0.00 | 0.00 | 0.00 | 55 | 1010.7 |
| 20260507175119 | 16 | 292 | 6.4 | 11.3 | 0.00 | 0.00 | 0.00 | 55 | 1010.6 |
| 20260507173121 | 17 | 292 | 4.8 | 9.7 | 0.00 | 0.00 | 0.00 | 52 | 1010.6 |
| 20260507171120 | 17 | 0 | 3.2 | 14.5 | 0.00 | 0.00 | 0.00 | 52 | 1010.7 |
| 20260507165120 | 17 | 315 | 8.0 | 16.1 | 0.00 | 0.00 | 0.00 | 50 | 1010.7 |
| 20260507163120 | 17 | 292 | 9.7 | 17.7 | 0.00 | 0.00 | 0.00 | 50 | 1010.7 |
| 20260507161120 | 17 | 270 | 9.7 | 17.7 | 0.00 | 0.00 | 0.00 | 52 | 1010.9 |
| 20260507155120 | 17 | 247 | 9.7 | 17.7 | 0.00 | 0.00 | 0.00 | 50 | 1010.8 |
| 20260507153120 | 17 | 270 | 9.7 | 19.3 | 0.00 | 0.00 | 0.00 | 47 | 1011.0 |
| 20260507151120 | 17 | 270 | 9.7 | 16.1 | 0.00 | 0.00 | 0.00 | 49 | 1011.1 |
| 20260507145121 | 16 | 270 | 11.3 | 17.7 | 0.00 | 0.00 | 0.00 | 54 | 1011.2 |
| 20260507143120 | 17 | 270 | 12.9 | 20.9 | 0.00 | 0.00 | 0.00 | 53 | 1011.3 |
| 20260507141119 | 16 | 292 | 11.3 | 19.3 | 0.00 | 0.00 | 0.00 | 57 | 1011.4 |
| 20260507135121 | 16 | 270 | 14.5 | 22.5 | 0.00 | 0.00 | 0.00 | 62 | 1011.5 |
| 20260507133120 | 16 | 270 | 14.5 | 24.1 | 0.00 | 0.00 | 0.00 | 68 | 1011.6 |
| 20260507131121 | 16 | 247 | 14.5 | 24.1 | 0.00 | 0.00 | 0.00 | 68 | 1011.7 |
| 20260507125119 | 16 | 225 | 14.5 | 25.7 | 0.00 | 0.00 | 0.00 | 71 | 1011.7 |
| 20260507123120 | 16 | 225 | 14.5 | 20.9 | 0.00 | 0.00 | 0.00 | 72 | 1011.7 |
| 20260507121119 | 16 | 247 | 12.9 | 24.1 | 0.00 | 0.00 | 0.00 | 73 | 1011.7 |
| 20260507115119 | 15 | 202 | 11.3 | 20.9 | 0.00 | 0.00 | 0.00 | 75 | 1011.7 |
| 20260507113119 | 16 | 202 | 11.3 | 20.9 | 0.00 | 0.00 | 0.00 | 75 | 1011.8 |
| 20260507111119 | 15 | 225 | 9.7 | 19.3 | 0.00 | 0.00 | 0.00 | 78 | 1011.9 |
| 20260507105119 | 14 | 157 | 4.8 | 12.9 | 0.00 | 0.00 | 0.00 | 78 | 1012.0 |
| 20260507103118 | 14 | 135 | 6.4 | 16.1 | 0.00 | 0.00 | 0.00 | 78 | 1012.1 |
| 20260507101119 | 14 | 202 | 4.8 | 12.9 | 0.00 | 0.00 | 0.00 | 81 | 1012.2 |
| 20260507095119 | 13 | 157 | 8.0 | 14.5 | 0.00 | 0.00 | 0.00 | 81 | 1012.1 |
| 20260507093119 | 13 | 180 | 6.4 | 12.9 | 0.00 | 0.00 | 0.00 | 82 | 1012.1 |
| 20260507091119 | 13 | 157 | 8.0 | 16.1 | 0.00 | 0.00 | 0.00 | 85 | 1012.1 |
| 20260507085119 | 13 | 135 | 8.0 | 17.7 | 0.00 | 0.00 | 0.00 | 86 | 1012.1 |
| 20260507083120 | 13 | 157 | 8.0 | 16.1 | 0.00 | 0.00 | 0.00 | 88 | 1012.1 |
| 20260507081121 | 13 | 157 | 6.4 | 14.5 | 0.00 | 0.00 | 0.00 | 89 | 1012.1 |
| 20260507075120 | 12 | 157 | 6.4 | 14.5 | 0.00 | 0.00 | 0.00 | 90 | 1012.0 |
| 20260507073120 | 12 | 135 | 6.4 | 12.9 | 0.00 | 0.00 | 0.00 | 90 | 1011.9 |
| 20260507071119 | 11 | 112 | 3.2 | 9.7 | 0.00 | 0.00 | 0.00 | 90 | 1011.8 |
| 20260507065119 | 10 | 90 | 3.2 | 12.9 | 0.00 | 0.00 | 0.00 | 90 | 1011.7 |
| 20260507063127 | 10 | 90 | 3.2 | 9.7 | 0.00 | 0.00 | 0.00 | 90 | 1011.8 |
| 20260507061120 | 10 | 90 | 4.8 | 9.7 | 0.00 | 0.00 | 0.00 | 90 | 1011.8 |
| 20260507055118 | 9 | 90 | 3.2 | 6.4 | 0.00 | 0.00 | 0.00 | 90 | 1011.8 |
| 20260507053118 | 9 | 67 | 4.8 | 11.3 | 0.00 | 0.00 | 0.00 | 89 | 1011.7 |
| 20260507051118 | 8 | 67 | 3.2 | 6.4 | 0.00 | 0.00 | 0.00 | 89 | 1011.6 |
| 20260507045122 | 8 | 67 | 3.2 | 6.4 | 0.00 | 0.00 | 0.00 | 89 | 1011.5 |
| 20260507043111 | 8 | 67 | 3.2 | 6.4 | 0.00 | 0.00 | 0.00 | 89 | 1011.5 |
| 20260507041121 | 7 | 67 | 1.6 | 4.8 | 0.00 | 0.00 | 0.00 | 89 | 1011.6 |
| 20260507035120 | 7 | 0.0 | 0.0 | 0.00 | 0.00 | 0.00 | 88 | 1011.4 | |
| 20260507033119 | 7 | 0.0 | 0.0 | 0.00 | 0.00 | 0.00 | 88 | 1011.4 | |
| 20260507031120 | 7 | 0.0 | 3.2 | 0.00 | 0.00 | 0.00 | 88 | 1011.4 | |
| 20260507025121 | 7 | 67 | 3.2 | 4.8 | 0.00 | 0.00 | 0.00 | 88 | 1011.4 |
| 20260507023121 | 7 | 0.0 | 3.2 | 0.00 | 0.00 | 0.00 | 88 | 1011.5 | |
| 20260507021119 | 8 | 67 | 1.6 | 4.8 | 0.00 | 0.00 | 0.00 | 88 | 1011.5 |
| 20260507015119 | 8 | 67 | 3.2 | 6.4 | 0.00 | 0.00 | 0.00 | 88 | 1011.4 |
| 20260507013120 | 8 | 67 | 1.6 | 3.2 | 0.00 | 0.00 | 0.00 | 87 | 1011.4 |
| 20260507011121 | 8 | 67 | 1.6 | 3.2 | 0.00 | 0.00 | 0.00 | 87 | 1011.4 |
| 20260507005120 | 8 | 67 | 1.6 | 4.8 | 0.00 | 0.00 | 0.00 | 87 | 1011.5 |
| 20260507003120 | 8 | 67 | 1.6 | 3.2 | 0.00 | 0.00 | 0.00 | 87 | 1011.6 |
| 20260507001120 | 8 | 67 | 1.6 | 3.2 | 0.00 | 0.00 | 0.00 | 87 | 1011.7 |
| 20260506235119 | 9 | 67 | 1.6 | 3.2 | 0.00 | 0.00 | 0.00 | 86 | 1011.7 |
| 20260506233120 | 9 | 67 | 1.6 | 4.8 | 0.00 | 0.00 | 0.00 | 86 | 1011.7 |
| 20260506231119 | 10 | 67 | 1.6 | 3.2 | 0.00 | 0.00 | 0.00 | 86 | 1011.7 |
| 20260506225119 | 10 | 67 | 1.6 | 4.8 | 0.00 | 0.00 | 0.00 | 86 | 1011.7 |
| 20260506223117 | 10 | 0.0 | 3.2 | 0.00 | 0.00 | 0.00 | 86 | 1011.7 | |
| 20260506221117 | 10 | 67 | 1.6 | 4.8 | 0.00 | 0.00 | 0.00 | 86 | 1011.8 |
| 20260506215117 | 11 | 0.0 | 3.2 | 0.00 | 0.00 | 0.00 | 85 | 1011.9 | |
| 20260506213117 | 11 | 67 | 1.6 | 3.2 | 0.00 | 0.00 | 0.00 | 85 | 1011.8 |
| 20260506211117 | 11 | 0.0 | 3.2 | 0.00 | 0.00 | 0.00 | 85 | 1011.8 | |
| 20260506205117 | 11 | 67 | 1.6 | 4.8 | 0.00 | 0.00 | 0.00 | 85 | 1011.7 |